Historyczne dane pomiarowe

Dodano dane terminowe – wersja testowa.

Dane z okresu 1951-2019

Wersja bazy: 1.34 [2019-03-16, lista zmian], aktualizacja planowana na 2019-04-15

Dane meteo z obszaru Polski uzyskane na podstawie danych udostępnionych przez Instytut Meteorologii i Gospodarki Wodnej – Państwowy Instytut Badawczy.

 

Wybierz Datę:    

       

TemperaturaWilgotnośćWiatrCiśnienieOpadyŚniegCzas trwania zjawisk
 Stacja t tx tn tng RH VA  wxwx mslp ppp RRR   cm mm wxwxwxwxwxwxwx
1966-07-16 15.2 21.0 10.3 8.1 73.0 12.5----1002.8- 2.2--x- 5.9-------
1966-07-17 15.7 18.2 13.4 12.7 76.0 13.6----1002.8- 10.1--x- 0.6-------
1966-07-18 18.5 25.2 12.5 12.5 86.0 17.7----1003.8- 0.0--x- 2.9-------
1966-07-19 21.6 29.2 16.4 15.5 80.0 21.2----1004.7- 1.8--x- 8.1-------
1966-07-20 20.9 25.3 15.6 14.8 83.0 20.7----1004.2- 2.5--x- 4.9-------
1966-07-21 19.4 23.5 17.0 17.0 89.0 20.0----1003.6- 4.8--x- 0.9-------
1966-07-22 19.7 23.7 17.4 17.4 89.0 20.5---- 999.1- 0.0--x- 0.3-------
1966-07-23 18.7 24.0 16.4 14.3 84.0 18.7----1000.7- 0.0--x- 4.8-------
1966-07-24 19.0 25.7 12.1 10.5 72.0 15.5----1000.7- 0.0--x- 13.0-------
1966-07-25 18.0 27.0 12.4 9.5 69.0 14.4---- 995.2- 0.0--x- 3.8-------
1966-07-26 16.1 20.6 11.6 10.6 64.0 11.5----1003.9- 0.0--x- 8.4-------
1966-07-27 18.1 23.8 13.9 12.8 64.0 12.9----1003.5- 0.0--x- 9.1-------
1966-07-28 15.0 19.2 13.3 12.5 69.0 12.0----1005.9- 0.0--x- 3.7-------
1966-07-29 15.6 20.9 7.3 3.5 63.0 10.8----1004.6- 0.0--x- 5.3-------
1966-07-30 17.6 22.4 10.3 6.8 59.0 11.7----1002.3- 0.0--x- 7.9-------
1966-07-31 16.6 21.7 11.3 10.4 61.0 11.6----1005.8- 1.0--x- 13.0-------
1966-08-01 18.5 23.1 9.5 6.8 58.0 11.7----1005.2- 1.3--x- 8.9-------
1966-08-02 15.3 21.1 13.2 13.4 74.0 12.9----1002.3- 0.2--x- 6.3-------
1966-08-03 16.6 22.0 8.4 4.3 82.0 15.5----1001.5- 1.1--x- 3.1-------
1966-08-04 15.4 22.2 14.3 13.5 91.0 16.4---- 997.9- 12.1--x- 1.7-------
1966-08-05 17.5 22.6 14.3 12.0 70.0 13.9----1001.4- 0.0--x- 10.0-------
1966-08-06 14.9 20.5 9.8 8.6 69.0 11.7----1004.4- 0.0--x- 9.2-------
1966-08-07 16.4 21.5 10.3 6.5 67.0 12.4----1003.5- 0.0--x- 6.0-------
1966-08-08 19.1 26.4 14.1 10.4 70.0 15.7---- 999.1- 3.7--x- 7.4-------
1966-08-09 13.4 18.5 12.3 12.9 88.0 13.7----1005.2- 1.2--x- 2.0-------
1966-08-10 20.1 25.6 9.5 7.2 60.0 13.2----1007.5- 0.0--x- 11.5-------
1966-08-11 20.4 26.6 14.6 12.5 69.0 16.5----1008.7- 0.0--x- 7.6-------
1966-08-12 24.2 31.1 17.0 14.1 64.0 19.2----1010.4- 0.0--x- 12.5-------
1966-08-13 27.2 35.5 18.5 14.8 56.0 19.6----1007.8- 0.0--x- 13.1-------
1966-08-14 23.5 29.1 20.4 19.3 52.0 16.1----1007.9- 0.0--x- 13.2-------
171.0 ms

 

Źródłem pochodzenia danych jest Instytut Meteorologii i Gospodarki Wodnej – Państwowy Instytut Badawczy. Dane Instytutu Meteorologii i Gospodarki Wodnej – Państwowego Instytutu Badawczego zostały przetworzone.

Dane źródłowe można odnaleźć na stronie https://dane.imgw.pl